KFRG/FRG METAR and TAF weather

Enter ICAO airport designator
Station Type Date Time Source
KFRG METAR 2019/10/15 20:53 UTC NOAA

KFRG 152053Z 19008KT 10SM CLR 15/06 A3009 RMK AO2 SLP191 T01500056 56014 $


Station Type Date Time Source
KFRG Decoded METAR 2019/10/15 20:53 UTC NOAA

FARMINGDALE REPUBLIC AIRPORT , NY, United States (KFRG) 40-44N 073-25W 21M
Oct 15, 2019 - 04:53 PM EDT / 2019.10.15 2053 UTC
Wind: from the S (190 degrees) at 9 MPH (8 KT):0
Visibility: 10 mile(s):0
Sky conditions: clear
Temperature: 59.0 F (15.0 C)
Dew Point: 42.1 F (5.6 C)
Relative Humidity: 53%
Pressure (altimeter): 30.09 in. Hg (1018 hPa)
Pressure tendency: 0.04 inches (1.4 hPa) lower than three hours ago
ob: KFRG 152053Z 19008KT 10SM CLR 15/06 A3009 RMK AO2 SLP191 T01500056 56014
cycle: 21

Station Type Date Time Source
KFRG TAF UTC NOAA

Error!

Example: see airport list